KAPF/APF METAR and TAF weather

Enter ICAO airport designator
Station Type Date Time Source
KAPF METAR 2019/10/18 05:53 UTC NOAA

KAPF 180553Z AUTO 00000KT 10SM CLR 27/24 A2991 RMK AO2 SLP127 T02720239 10289 20267 58006


Station Type Date Time Source
KAPF Decoded METAR 2019/10/18 05:53 UTC NOAA

NAPLES MUNICIPAL AIRPORT, FL, United States (KAPF) 26-09N 081-46W
Oct 18, 2019 - 01:53 AM EDT / 2019.10.18 0553 UTC
Wind: Calm:0
Visibility: 10 mile(s):0
Sky conditions: clear
Temperature: 81.0 F (27.2 C)
Dew Point: 75.0 F (23.9 C)
Relative Humidity: 82%
Pressure (altimeter): 29.91 in. Hg (1012 hPa)
Pressure tendency: 0.02 inches (0.6 hPa) lower than three hours ago
ob: KAPF 180553Z AUTO 00000KT 10SM CLR 27/24 A2991 RMK AO2 SLP127 T02720239 10289 20267 58006
cycle: 6

Station Type Date Time Source
KAPF TAF 2019/10/18 06:39 UTC NOAA

TAF KAPF 180537Z 1806/1906 VRB03KT 6SM BR BCFG FEW007 FEW015 SCT025
FM181300 VRB03KT P6SM FEW045 SCT200
FM181600 17010KT P6SM VCSH SCT045 BKN110
FM190300 15007KT 6SM BR BCFG VCSH FEW010 SCT035 BKN110

Example: see airport list